createdAt,value
2019-01-18T00:00:45.025Z,-7.6
2019-01-18T00:01:35.089Z,-7.6
2019-01-18T00:02:24.586Z,-7.7
2019-01-18T00:03:30.189Z,-7.7
2019-01-18T00:04:05.246Z,-7.7
2019-01-18T00:04:55.586Z,-7.8
2019-01-18T00:05:45.361Z,-7.8
2019-01-18T00:06:35.426Z,-7.8
2019-01-18T00:07:25.744Z,-7.8
2019-01-18T00:08:15.550Z,-7.8
2019-01-18T00:09:05.043Z,-7.8
2019-01-18T00:09:55.925Z,-7.8
2019-01-18T00:10:45.428Z,-7.8
2019-01-18T00:11:35.761Z,-7.8
2019-01-18T00:12:25.830Z,-7.9
2019-01-18T00:13:16.152Z,-7.9
2019-01-18T00:14:06.217Z,-7.9
2019-01-18T00:14:56.270Z,-7.9
2019-01-18T00:15:46.332Z,-7.9
2019-01-18T00:16:35.835Z,-7.9
2019-01-18T00:17:26.161Z,-7.9
2019-01-18T00:18:15.942Z,-7.9
2019-01-18T00:19:05.723Z,-7.9
2019-01-18T00:19:56.660Z,-7.9
2019-01-18T00:20:46.390Z,-7.9
2019-01-18T00:21:36.722Z,-7.9
2019-01-18T00:22:26.782Z,-7.9
2019-01-18T00:23:16.843Z,-7.9
2019-01-18T00:24:06.895Z,-7.9
2019-01-18T00:24:56.950Z,-7.9
2019-01-18T00:25:46.744Z,-7.9
2019-01-18T00:26:37.059Z,-7.9
2019-01-18T00:27:27.123Z,-7.9
2019-01-18T00:28:17.237Z,-7.9
2019-01-18T00:29:06.972Z,-7.9
2019-01-18T00:29:57.019Z,-7.9
2019-01-18T00:30:46.812Z,-7.9
2019-01-18T00:31:36.856Z,-7.9
2019-01-18T00:32:27.189Z,-7.9
2019-01-18T00:33:17.529Z,-7.9
2019-01-18T00:34:07.304Z,-7.9
2019-01-18T00:34:57.669Z,-7.9
2019-01-18T00:35:47.692Z,-7.9
2019-01-18T00:36:37.479Z,-7.9
2019-01-18T00:37:27.534Z,-7.9
2019-01-18T00:38:17.581Z,-7.9
2019-01-18T00:39:07.927Z,-7.9
2019-01-18T00:39:57.431Z,-7.9
2019-01-18T00:40:47.761Z,-7.9
2019-01-18T03:08:40.773Z,-9.2
2019-01-18T03:09:30.265Z,-9.2
2019-01-18T03:10:20.871Z,-9.2
2019-01-18T03:11:11.017Z,-9.2
2019-01-18T03:12:00.446Z,-9.2
2019-01-18T03:12:51.055Z,-9.2
2019-01-18T03:13:41.082Z,-9.2
2019-01-18T03:14:31.143Z,-9.2
2019-01-18T03:15:21.216Z,-9.3
2019-01-18T03:16:10.979Z,-9.3
2019-01-18T03:17:00.781Z,-9.3
2019-01-18T03:17:51.404Z,-9.3
2019-01-18T03:18:41.485Z,-9.3
2019-01-18T03:19:31.578Z,-9.3
2019-01-18T03:20:21.541Z,-9.3
2019-01-18T03:21:11.337Z,-9.3
2019-01-18T03:22:01.657Z,-9.3
2019-01-18T03:22:51.780Z,-9.4
2019-01-18T03:23:41.514Z,-9.3
2019-01-18T03:24:31.616Z,-9.4
2019-01-18T03:25:21.366Z,-9.4
2019-01-18T03:26:11.404Z,-9.4
2019-01-18T03:27:02.003Z,-9.4
2019-01-18T03:27:52.058Z,-9.4
2019-01-18T03:28:42.110Z,-9.4
2019-01-18T03:29:32.173Z,-9.4
2019-01-18T03:30:23.315Z,-9.4
2019-01-18T03:31:12.313Z,-9.4
2019-01-18T03:32:02.391Z,-9.5
2019-01-18T03:32:52.550Z,-9.5
2019-01-18T03:33:42.173Z,-9.5
2019-01-18T03:34:32.524Z,-9.5
2019-01-18T03:35:22.545Z,-9.5
2019-01-18T03:36:12.358Z,-9.5
2019-01-18T03:37:02.719Z,-9.5
2019-01-18T03:37:52.733Z,-9.5
2019-01-18T03:38:42.802Z,-9.5
2019-01-18T03:39:32.861Z,-9.5
2019-01-18T03:40:22.914Z,-9.5
2019-01-18T03:49:33.552Z,-9.6
2019-01-18T03:50:23.344Z,-9.6
2019-01-18T03:51:13.094Z,-9.6
2019-01-18T03:52:03.709Z,-9.6
2019-01-18T03:52:53.511Z,-9.6
2019-01-18T03:53:43.548Z,-9.6
2019-01-18T03:54:33.877Z,-9.6
2019-01-18T03:55:23.387Z,-9.6
2019-01-18T03:56:13.984Z,-9.6
2019-01-18T03:57:03.524Z,-9.6
2019-01-18T03:57:54.101Z,-9.6
2019-01-18T03:58:43.904Z,-9.7
2019-01-18T03:59:33.713Z,-9.6
2019-01-18T04:00:28.126Z,-9.6
2019-01-18T04:01:14.056Z,-9.6
2019-01-18T04:02:04.434Z,-9.6
2019-01-18T04:02:54.481Z,-9.6
2019-01-18T04:05:24.355Z,-9.5
2019-01-18T04:06:14.673Z,-9.5
2019-01-18T04:07:04.727Z,-9.5
2019-01-18T04:07:54.518Z,-9.5
2019-01-18T04:08:44.912Z,-9.5
2019-01-18T04:09:34.904Z,-9.5
2019-01-18T04:10:24.681Z,-9.5
2019-01-18T04:11:15.016Z,-9.5
2019-01-18T04:12:04.513Z,-9.5
2019-01-18T04:12:54.593Z,-9.5
2019-01-18T04:19:35.295Z,-9.6
2019-01-18T04:20:25.639Z,-9.6
2019-01-18T04:21:15.713Z,-9.6
2019-01-18T04:22:05.773Z,-9.6
2019-01-18T04:22:55.533Z,-9.6
2019-01-18T04:23:45.875Z,-9.6
2019-01-18T04:24:35.913Z,-9.7
2019-01-18T04:25:26.040Z,-9.6
2019-01-18T04:26:16.032Z,-9.6
2019-01-18T04:27:06.087Z,-9.6
2019-01-18T04:27:56.167Z,-9.6
2019-01-18T04:28:46.242Z,-9.6
2019-01-18T04:29:35.713Z,-9.6
2019-01-18T04:30:34.402Z,-9.6
2019-01-18T04:31:16.385Z,-9.6
2019-01-18T04:32:06.429Z,-9.6
2019-01-18T04:32:56.220Z,-9.6
2019-01-18T04:33:46.287Z,-9.6
2019-01-18T04:34:36.599Z,-9.6
2019-01-18T04:35:26.667Z,-9.6
2019-01-18T04:36:16.759Z,-9.6
2019-01-18T04:37:06.759Z,-9.6
2019-01-18T04:37:56.549Z,-9.6
2019-01-18T04:38:46.911Z,-9.6
2019-01-18T04:39:36.666Z,-9.6
2019-01-18T04:40:26.999Z,-9.6
2019-01-18T04:41:17.063Z,-9.6
2019-01-18T04:42:06.849Z,-9.6
2019-01-18T04:42:56.901Z,-9.6
2019-01-18T04:43:47.242Z,-9.6
2019-01-18T04:44:37.281Z,-9.6
2019-01-18T04:45:27.059Z,-9.6
2019-01-18T04:46:16.855Z,-9.6
2019-01-18T04:47:06.631Z,-9.7
2019-01-18T04:47:57.498Z,-9.7
2019-01-18T04:48:47.569Z,-9.7
2019-01-18T04:49:37.343Z,-9.7
2019-01-18T04:50:27.695Z,-9.7
2019-01-18T04:51:17.448Z,-9.7
2019-01-18T04:52:07.790Z,-9.7
2019-01-18T04:52:57.572Z,-9.7
2019-01-18T04:53:47.628Z,-9.7
2019-01-18T04:54:37.960Z,-9.7
2019-01-18T04:55:42.673Z,-9.7
2019-01-18T04:56:18.062Z,-9.7
2019-01-18T04:57:08.115Z,-9.8
2019-01-18T04:57:57.905Z,-9.7
2019-01-18T04:58:47.971Z,-9.8
2019-01-18T04:59:38.310Z,-9.8
2019-01-18T05:00:28.368Z,-9.7
2019-01-18T05:01:18.415Z,-9.7
2019-01-18T05:02:08.199Z,-9.7
2019-01-18T05:02:58.527Z,-9.8
2019-01-18T05:03:48.587Z,-9.8
2019-01-18T05:04:38.653Z,-9.8
2019-01-18T05:05:28.432Z,-9.8
2019-01-18T05:06:17.927Z,-9.8
2019-01-18T05:07:08.802Z,-9.8
2019-01-18T05:07:58.589Z,-9.8
2019-01-18T05:08:48.642Z,-9.8
2019-01-18T05:09:38.981Z,-9.9
2019-01-18T05:10:29.031Z,-9.9
2019-01-18T05:11:19.082Z,-9.9
2019-01-18T05:12:08.584Z,-9.9
2019-01-18T05:12:59.209Z,-9.9
2019-01-18T05:13:49.297Z,-9.9
2019-01-18T05:14:39.314Z,-9.9
2019-01-18T05:15:29.138Z,-9.9
2019-01-18T05:16:19.427Z,-9.9
2019-01-18T05:17:09.202Z,-9.9
2019-01-18T05:17:59.611Z,-10
2019-01-18T05:18:49.606Z,-9.9
2019-01-18T05:19:39.659Z,-9.9
2019-01-18T05:20:29.454Z,-9.9
2019-01-18T05:21:19.506Z,-9.9
2019-01-18T05:22:09.530Z,-10
2019-01-18T05:22:59.611Z,-10
2019-01-18T05:23:49.654Z,-10
2019-01-18T05:24:39.974Z,-10.1
2019-01-18T05:25:29.777Z,-10.1
2019-01-18T05:26:19.836Z,-10.1
2019-01-18T05:27:09.876Z,-10.1
2019-01-18T05:27:59.958Z,-10.1
2019-01-18T05:28:50.283Z,-10.1
2019-01-18T05:29:39.820Z,-10.1
2019-01-18T05:30:30.381Z,-10.1
2019-01-18T05:31:20.437Z,-10.1
2019-01-18T05:32:09.945Z,-10.1
2019-01-18T05:33:00.568Z,-10.1
2019-01-18T05:33:50.593Z,-10.2
2019-01-18T05:34:40.680Z,-10.2
2019-01-18T05:35:30.753Z,-10.2
2019-01-18T05:36:20.800Z,-10.2
2019-01-18T05:37:10.553Z,-10.2
2019-01-18T05:38:00.888Z,-10.2
2019-01-18T05:38:50.935Z,-10.2
2019-01-18T05:39:40.990Z,-10.3
2019-01-18T05:40:30.780Z,-10.3
2019-01-18T05:41:20.826Z,-10.3
2019-01-18T05:42:10.881Z,-10.3
2019-01-18T05:43:01.232Z,-10.3
2019-01-18T05:43:50.989Z,-10.3
2019-01-18T05:44:42.313Z,-10.3
2019-01-18T05:45:31.381Z,-10.3
2019-01-18T05:46:21.190Z,-10.3
2019-01-18T05:47:11.507Z,-10.3
2019-01-18T05:48:01.557Z,-10.3
2019-01-18T05:48:51.643Z,-10.4
2019-01-18T05:49:41.425Z,-10.3
2019-01-18T05:50:31.459Z,-10.4
2019-01-18T05:51:21.769Z,-10.4
2019-01-18T05:52:11.860Z,-10.4
2019-01-18T05:53:01.903Z,-10.4
2019-01-18T05:53:52.187Z,-10.4
2019-01-18T05:54:41.730Z,-10.4
2019-01-18T05:55:32.075Z,-10.4
2019-01-18T05:56:21.849Z,-10.4
2019-01-18T05:57:11.945Z,-10.4
2019-01-18T05:58:02.227Z,-10.4
2019-01-18T05:58:52.287Z,-10.4
2019-01-18T05:59:42.072Z,-10.4
2019-01-18T06:00:32.129Z,-10.4
2019-01-18T06:01:22.529Z,-10.4
2019-01-18T06:02:12.231Z,-10.4
2019-01-18T06:03:02.572Z,-10.4
2019-01-18T06:03:52.397Z,-10.4
2019-01-18T06:04:42.677Z,-10.4
2019-01-18T06:06:40.624Z,-10.4
2019-01-18T06:07:30.706Z,-10.4
2019-01-18T06:08:20.800Z,-10.4
2019-01-18T06:09:10.809Z,-10.4
2019-01-18T06:10:00.842Z,-10.4
2019-01-18T06:10:50.898Z,-10.4
2019-01-18T06:11:40.943Z,-10.4
2019-01-18T06:12:30.733Z,-10.4
2019-01-18T06:13:21.085Z,-10.4
2019-01-18T06:14:10.570Z,-10.4
2019-01-18T06:15:00.918Z,-10.4
2019-01-18T06:15:51.286Z,-10.4
2019-01-18T06:16:41.288Z,-10.4
2019-01-18T06:17:31.348Z,-10.3
2019-01-18T06:18:21.126Z,-10.3
2019-01-18T06:19:11.463Z,-10.3
2019-01-18T06:20:01.678Z,-10.3
2019-01-18T06:20:51.555Z,-10.3
2019-01-18T06:21:41.618Z,-10.3
2019-01-18T06:22:31.688Z,-10.3
2019-01-18T06:23:21.743Z,-10.3
2019-01-18T06:24:11.520Z,-10.3
2019-01-18T06:25:01.929Z,-10.2
2019-01-18T06:25:51.908Z,-10.2
2019-01-18T06:26:41.970Z,-10.1
2019-01-18T06:27:31.517Z,-10.1
2019-01-18T06:28:21.521Z,-10.1
2019-01-18T06:29:12.112Z,-10
2019-01-18T06:30:02.210Z,-10
2019-01-18T06:30:52.242Z,-9.9
2019-01-18T06:31:42.297Z,-9.9
2019-01-18T06:32:32.064Z,-9.9
2019-01-18T06:33:22.420Z,-9.8
2019-01-18T06:34:12.237Z,-9.8
2019-01-18T06:35:02.530Z,-9.7
2019-01-18T06:35:52.332Z,-9.7
2019-01-18T06:38:22.734Z,-9.5
2019-01-18T06:39:12.804Z,-9.4
2019-01-18T06:40:02.853Z,-9.4
2019-01-18T06:40:52.908Z,-9.3
2019-01-18T06:41:42.959Z,-9.2
2019-01-18T06:42:32.759Z,-9.1
2019-01-18T06:43:23.084Z,-9.1
2019-01-18T06:44:13.136Z,-8.9
2019-01-18T06:45:02.927Z,-8.8
2019-01-18T06:45:53.244Z,-8.7
2019-01-18T06:46:42.561Z,-8.6
2019-01-18T06:47:33.102Z,-8.5
2019-01-18T06:48:23.454Z,-8.4
2019-01-18T06:49:13.201Z,-8.3
2019-01-18T06:50:03.266Z,-8.1
2019-01-18T06:50:53.571Z,-8
2019-01-18T06:51:43.661Z,-7.8
2019-01-18T06:52:33.421Z,-7.7
2019-01-18T06:53:23.748Z,-7.6
2019-01-18T06:54:13.800Z,-7.4
2019-01-18T06:55:03.883Z,-7.2
2019-01-18T06:55:53.925Z,-7.1
2019-01-18T06:56:43.712Z,-6.9
2019-01-18T06:57:33.768Z,-6.7
2019-01-18T06:58:24.083Z,-6.5
2019-01-18T06:59:14.138Z,-6.3
2019-01-18T07:00:03.991Z,-6.1
2019-01-18T07:00:54.267Z,-5.9
2019-01-18T07:01:44.040Z,-5.6
2019-01-18T07:02:34.098Z,-5.4
2019-01-18T07:03:24.155Z,-5.2
2019-01-18T07:04:14.493Z,-4.9
2019-01-18T07:06:40.027Z,-4.4
2019-01-18T07:07:30.612Z,-4.1
2019-01-18T07:08:20.405Z,-3.9
2019-01-18T07:09:10.740Z,-3.6
2019-01-18T07:10:00.799Z,-3.4
2019-01-18T07:10:50.292Z,-3.1
2019-01-18T07:11:40.627Z,-2.9
2019-01-18T07:12:30.682Z,-2.6
2019-01-18T07:13:20.739Z,-2.3
2019-01-18T07:14:11.067Z,-2
2019-01-18T07:15:01.239Z,-1.7
2019-01-18T07:15:51.177Z,-1.3
2019-01-18T07:16:40.957Z,-0.9
2019-01-18T07:17:30.745Z,-0.4
2019-01-18T07:18:22.411Z,0.1
2019-01-18T07:19:11.406Z,0.6
2019-01-18T07:20:01.460Z,1.1
2019-01-18T07:20:51.519Z,1.7
2019-01-18T07:21:41.579Z,2.3
2019-01-18T07:22:31.354Z,2.9
2019-01-18T07:23:21.691Z,3.4
2019-01-18T07:24:11.744Z,3.9
2019-01-18T07:25:01.551Z,4.4
2019-01-18T07:25:51.861Z,4.9
2019-01-18T07:26:41.654Z,5.4
2019-01-18T07:27:32.086Z,5.9
2019-01-18T07:28:22.031Z,6.3
2019-01-18T07:29:12.111Z,6.8
2019-01-18T07:30:02.146Z,7.1
2019-01-18T07:30:52.190Z,7.4
2019-01-18T07:31:41.717Z,7.8
2019-01-18T07:32:31.783Z,8
2019-01-18T07:33:22.389Z,8.3
2019-01-18T07:34:12.435Z,8.6
2019-01-18T07:35:02.502Z,8.9
2019-01-18T07:35:52.532Z,9.1
2019-01-18T07:36:42.610Z,9.4
2019-01-18T07:37:32.655Z,9.6
2019-01-18T07:38:22.153Z,9.9
2019-01-18T07:39:12.495Z,10.3
2019-01-18T07:40:02.845Z,10.6
2019-01-18T07:40:52.607Z,11
2019-01-18T07:41:42.940Z,11.4
2019-01-18T07:42:33.013Z,11.8
2019-01-18T07:43:23.068Z,12.3
2019-01-18T07:44:13.163Z,12.8
2019-01-18T07:45:03.188Z,13.3
2019-01-18T07:45:52.690Z,13.9
2019-01-18T07:46:43.038Z,14.4
2019-01-18T07:47:33.355Z,15
2019-01-18T07:48:23.418Z,15.6
2019-01-18T07:49:13.473Z,16.3
2019-01-18T07:50:03.287Z,16.9
2019-01-18T07:50:53.298Z,17.6
2019-01-18T07:51:43.682Z,18.3
2019-01-18T07:52:33.692Z,18.9
2019-01-18T07:53:23.754Z,19.6
2019-01-18T07:54:13.526Z,20.3
2019-01-18T07:55:03.586Z,21
2019-01-18T07:55:53.637Z,21.6
2019-01-18T07:56:43.978Z,22.4
2019-01-18T07:57:34.044Z,23
2019-01-18T07:58:23.816Z,23.7
2019-01-18T07:59:14.140Z,24.3
2019-01-18T08:00:04.221Z,24.9
2019-01-18T08:00:54.259Z,25.5
2019-01-18T08:01:44.321Z,26.2
2019-01-18T08:02:34.109Z,26.8
2019-01-18T08:03:24.163Z,27.4
2019-01-18T08:04:14.219Z,28.1
2019-01-18T08:05:04.308Z,28.7
2019-01-18T08:05:54.334Z,29.3
2019-01-18T08:06:44.379Z,30
2019-01-18T08:07:34.721Z,30.6
2019-01-18T08:08:24.779Z,31.3
2019-01-18T08:09:14.823Z,31.9
2019-01-18T08:10:04.601Z,32.6
2019-01-18T08:10:54.958Z,33.3
2019-01-18T08:11:44.494Z,33.8
2019-01-18T08:12:35.058Z,34.4
2019-01-18T08:13:25.116Z,35.1
2019-01-18T08:14:15.173Z,35.7
2019-01-18T08:15:05.241Z,36.4
2019-01-18T08:15:55.286Z,37.1
2019-01-18T08:16:45.048Z,37.7
2019-01-18T08:17:35.412Z,38.3
2019-01-18T08:18:25.180Z,38.9
2019-01-18T08:19:15.518Z,39.5
2019-01-18T08:20:05.566Z,40.1
2019-01-18T08:20:55.635Z,40.6
2019-01-18T08:21:45.690Z,41.2
2019-01-18T08:22:35.745Z,41.6
2019-01-18T08:23:25.523Z,42
2019-01-18T08:24:15.860Z,42.4
2019-01-18T08:25:05.655Z,42.7
2019-01-18T08:25:55.700Z,43
2019-01-18T08:26:46.086Z,43.3
2019-01-18T08:27:36.097Z,43.5
2019-01-18T08:28:26.137Z,43.8
2019-01-18T08:29:16.199Z,44
2019-01-18T08:30:06.263Z,44.3
2019-01-18T08:30:56.312Z,44.5
2019-01-18T08:31:46.375Z,44.8
2019-01-18T08:32:36.174Z,45.3
2019-01-18T08:33:26.212Z,45.8
2019-01-18T08:34:15.787Z,46.3
2019-01-18T08:35:06.604Z,46.8
2019-01-18T08:35:56.175Z,47.4
2019-01-18T08:36:46.441Z,47.9
2019-01-18T08:37:36.492Z,48.4
2019-01-18T08:38:26.860Z,48.9
2019-01-18T08:39:16.617Z,49.4
2019-01-18T08:40:06.941Z,49.6
2019-01-18T08:40:57.011Z,49.8
2019-01-18T08:41:47.094Z,49.9
2019-01-18T08:42:36.846Z,50.1
2019-01-18T08:43:26.902Z,50.1
2019-01-18T08:44:17.234Z,50.1
2019-01-18T08:45:07.286Z,50.1
2019-01-18T08:45:57.064Z,50
2019-01-18T08:46:47.399Z,49.9
2019-01-18T08:47:37.188Z,49.8
2019-01-18T08:48:27.513Z,49.8
2019-01-18T08:49:17.584Z,49.7
2019-01-18T08:50:07.623Z,49.6
2019-01-18T08:50:57.668Z,49.4
2019-01-18T08:51:47.456Z,49.3
2019-01-18T08:52:37.803Z,49.1
2019-01-18T08:53:27.575Z,48.8
2019-01-18T08:54:17.908Z,48.6
2019-01-18T08:55:07.419Z,48.4
2019-01-18T08:55:58.013Z,48.2
2019-01-18T08:56:47.798Z,48.1
2019-01-18T08:57:38.135Z,47.8
2019-01-18T08:58:27.926Z,47.6
2019-01-18T08:59:18.013Z,47.4
2019-01-18T09:00:08.036Z,47.3
2019-01-18T09:00:57.810Z,47.1
2019-01-18T09:01:48.438Z,46.9
2019-01-18T09:02:38.480Z,46.6
2019-01-18T09:03:28.550Z,46.3
2019-01-18T09:04:17.763Z,46
2019-01-18T09:05:09.742Z,45.6
2019-01-18T09:05:58.435Z,45.2
2019-01-18T09:06:48.302Z,44.8
2019-01-18T09:07:38.547Z,44.4
2019-01-18T09:08:28.917Z,44.1
2019-01-18T09:09:18.437Z,43.8
2019-01-18T09:10:08.717Z,43.4
2019-01-18T09:10:58.772Z,43
2019-01-18T09:11:48.551Z,42.6
2019-01-18T09:12:39.171Z,42.2
2019-01-18T09:13:29.222Z,41.8
2019-01-18T09:14:21.254Z,41.3
2019-01-18T09:15:09.066Z,40.8
2019-01-18T09:15:59.109Z,40.4
2019-01-18T09:16:49.174Z,39.9
2019-01-18T09:17:39.253Z,39.5
2019-01-18T09:18:29.560Z,39.1
2019-01-18T09:19:19.074Z,38.6
2019-01-18T09:20:09.394Z,38.3
2019-01-18T09:20:59.736Z,37.9
2019-01-18T09:21:49.797Z,37.4
2019-01-18T09:22:39.844Z,37.1
2019-01-18T09:23:29.912Z,36.8
2019-01-18T09:24:19.479Z,36.4
2019-01-18T09:25:10.026Z,36
2019-01-18T09:25:59.801Z,35.7
2019-01-18T09:26:50.133Z,35.4
2019-01-18T09:27:40.204Z,35.1
2019-01-18T09:28:29.968Z,34.8
2019-01-18T09:29:20.339Z,34.6
2019-01-18T09:30:10.358Z,34.4
2019-01-18T09:31:00.418Z,34.1
2019-01-18T09:31:50.211Z,34
2019-01-18T09:32:40.533Z,33.8
2019-01-18T09:33:30.598Z,33.7
2019-01-18T09:34:20.660Z,33.5
2019-01-18T09:35:10.422Z,33.4
2019-01-18T09:36:00.483Z,33.3
2019-01-18T09:36:50.808Z,33.1
2019-01-18T09:37:40.883Z,33
2019-01-18T09:38:30.668Z,32.9
2019-01-18T09:39:20.715Z,32.9
2019-01-18T09:40:11.052Z,32.8
2019-01-18T09:41:00.820Z,32.8
2019-01-18T09:41:51.165Z,32.8
2019-01-18T09:42:41.258Z,32.8
2019-01-18T09:43:30.727Z,32.8
2019-01-18T09:44:21.332Z,32.8
2019-01-18T09:45:11.397Z,32.8
2019-01-18T09:46:01.168Z,32.7
2019-01-18T09:46:51.505Z,32.6
2019-01-18T09:47:41.562Z,32.4
2019-01-18T09:48:31.619Z,32.3
2019-01-18T09:49:21.407Z,32.1
2019-01-18T09:50:11.495Z,32
2019-01-18T09:51:01.782Z,31.8
2019-01-18T09:51:51.850Z,31.7
2019-01-18T09:52:41.902Z,31.5
2019-01-18T09:53:31.967Z,31.4
2019-01-18T09:54:21.744Z,31.2
2019-01-18T09:55:11.792Z,31.1
2019-01-18T09:56:02.127Z,30.9
2019-01-18T09:56:51.916Z,30.8
2019-01-18T09:57:41.974Z,30.6
2019-01-18T09:58:32.040Z,30.6
2019-01-18T09:59:22.401Z,30.4
2019-01-18T10:00:12.424Z,30.4
2019-01-18T10:01:03.144Z,30.3
2019-01-18T10:01:51.990Z,30.2
2019-01-18T10:02:42.589Z,30
2019-01-18T10:03:32.651Z,29.9
2019-01-18T10:04:22.439Z,29.8
2019-01-18T10:05:12.489Z,29.5
2019-01-18T10:07:39.665Z,29.1
2019-01-18T10:08:30.466Z,28.9
2019-01-18T10:09:20.523Z,28.8
2019-01-18T10:10:09.811Z,28.7
2019-01-18T10:10:59.586Z,28.6
2019-01-18T10:11:50.411Z,28.6
2019-01-18T10:12:40.258Z,28.5
2019-01-18T10:13:31.904Z,28.5
2019-01-18T10:14:20.856Z,28.6
2019-01-18T10:15:10.241Z,28.8
2019-01-18T10:16:00.499Z,28.9
2019-01-18T10:16:50.265Z,29.3
2019-01-18T10:17:40.803Z,29.7
2019-01-18T10:18:30.662Z,30.1
2019-01-18T10:19:21.208Z,30.5
2019-01-18T10:20:11.260Z,30.9
2019-01-18T10:21:01.368Z,31.3
2019-01-18T10:21:50.853Z,31.6
2019-01-18T10:22:40.675Z,32.1
2019-01-18T10:23:31.010Z,32.6
2019-01-18T10:24:22.760Z,33.1
2019-01-18T10:25:11.600Z,33.7
2019-01-18T10:26:01.662Z,34.2
2019-01-18T10:26:51.702Z,34.8
2019-01-18T10:27:41.767Z,35.2
2019-01-18T10:28:31.277Z,35.7
2019-01-18T10:29:27.978Z,36.1
2019-01-18T10:30:11.945Z,36.4
2019-01-18T10:31:02.007Z,36.8
2019-01-18T10:31:57.925Z,37.1
2019-01-18T10:32:41.569Z,37.6
2019-01-18T10:33:32.180Z,38.1
2019-01-18T10:34:22.234Z,38.6
2019-01-18T10:35:12.289Z,39
2019-01-18T10:36:01.802Z,39.4
2019-01-18T10:36:52.121Z,39.8
2019-01-18T10:37:42.457Z,40.1
2019-01-18T10:38:32.517Z,40.5
2019-01-18T10:39:22.569Z,40.9
2019-01-18T10:40:12.626Z,41.3
2019-01-18T10:41:02.686Z,41.7
2019-01-18T10:41:52.476Z,42.1
2019-01-18T10:42:42.802Z,42.6
2019-01-18T10:43:32.574Z,43
2019-01-18T10:44:22.911Z,43.4
2019-01-18T10:45:12.692Z,43.9
2019-01-18T10:46:02.759Z,44.4
2019-01-18T10:46:52.521Z,44.8
2019-01-18T10:47:42.871Z,45.1
2019-01-18T10:48:33.263Z,45.4
2019-01-18T10:49:22.978Z,45.6
2019-01-18T10:50:13.081Z,45.8
2019-01-18T10:51:03.383Z,45.9
2019-01-18T10:51:53.148Z,45.9
2019-01-18T10:52:43.208Z,45.9
2019-01-18T10:53:33.304Z,45.9
2019-01-18T10:54:23.318Z,45.9
2019-01-18T10:55:13.671Z,45.9
2019-01-18T10:56:03.490Z,45.9
2019-01-18T10:56:53.488Z,45.9
2019-01-18T10:57:43.583Z,45.9
2019-01-18T10:58:33.898Z,45.9
2019-01-18T10:59:23.658Z,45.8
2019-01-18T11:00:13.996Z,45.9
2019-01-18T11:01:04.053Z,45.9
2019-01-18T11:02:07.863Z,46
2019-01-18T11:02:44.163Z,46
2019-01-18T11:03:33.925Z,46.1
2019-01-18T11:04:24.000Z,46.1
2019-01-18T11:05:14.330Z,46
2019-01-18T11:06:04.411Z,45.9
2019-01-18T11:06:54.172Z,45.9
2019-01-18T11:07:44.491Z,45.9
2019-01-18T11:08:34.542Z,45.9
2019-01-18T11:09:24.325Z,45.8
2019-01-18T11:10:14.377Z,45.8
2019-01-18T11:11:04.437Z,45.8
2019-01-18T11:11:54.777Z,45.9
2019-01-18T11:12:44.824Z,46
2019-01-18T11:13:34.902Z,46.1
2019-01-18T11:14:24.666Z,46.3
2019-01-18T11:15:15.005Z,46.4
2019-01-18T11:16:05.071Z,46.5
2019-01-18T11:16:54.922Z,46.6
2019-01-18T11:17:45.182Z,46.6
2019-01-18T11:18:35.229Z,46.6
2019-01-18T11:19:25.007Z,46.4
2019-01-18T11:20:15.344Z,46.3
2019-01-18T11:21:05.407Z,46
2019-01-18T11:21:55.174Z,45.8
2019-01-18T11:22:44.974Z,45.6
2019-01-18T11:23:35.574Z,45.4
2019-01-18T11:24:25.631Z,45.1
2019-01-18T11:25:16.491Z,44.8
2019-01-18T11:26:05.479Z,44.4
2019-01-18T11:26:55.796Z,44.1
2019-01-18T11:27:45.852Z,43.8
2019-01-18T11:28:35.911Z,43.4
2019-01-18T11:29:25.971Z,43
2019-01-18T11:30:16.051Z,42.7
2019-01-18T11:31:06.083Z,42.3
2019-01-18T11:31:56.141Z,41.9
2019-01-18T11:32:45.926Z,41.6
2019-01-18T11:33:36.014Z,41.2
2019-01-18T11:34:25.741Z,40.8
2019-01-18T11:35:16.365Z,40.4
2019-01-18T11:36:06.138Z,40.1
2019-01-18T11:36:59.451Z,39.8
2019-01-18T11:37:46.263Z,39.4
2019-01-18T11:38:36.315Z,39.1
2019-01-18T11:39:26.404Z,38.8
2019-01-18T11:40:16.153Z,38.6
2019-01-18T11:41:06.495Z,38.4
2019-01-18T11:41:56.827Z,38.1
2019-01-18T11:42:46.933Z,37.9
2019-01-18T11:43:36.388Z,37.6
2019-01-18T11:44:26.723Z,37.4
2019-01-18T11:45:17.087Z,37.2
2019-01-18T11:46:06.567Z,37
2019-01-18T11:46:57.173Z,36.9
2019-01-18T11:47:46.952Z,36.8
2019-01-18T11:48:37.292Z,36.8
2019-01-18T11:49:27.337Z,36.8
2019-01-18T11:50:17.387Z,36.8
2019-01-18T11:51:06.899Z,36.9
2019-01-18T11:51:57.525Z,37.1
2019-01-18T11:52:47.565Z,37.2
2019-01-18T11:53:37.352Z,37.4
2019-01-18T11:54:27.692Z,37.7
2019-01-18T11:55:17.492Z,37.9
2019-01-18T11:56:07.808Z,38.3
2019-01-18T11:56:57.594Z,38.5
2019-01-18T11:57:47.648Z,38.8
2019-01-18T11:58:37.697Z,39
2019-01-18T11:59:27.744Z,39.1
2019-01-18T12:00:17.811Z,39.3
2019-01-18T12:01:07.864Z,39.3
2019-01-18T12:01:57.910Z,39.3
2019-01-18T12:02:47.972Z,39.3
2019-01-18T12:03:38.306Z,39.3
2019-01-18T12:04:28.400Z,39.3
2019-01-18T12:05:18.416Z,39.3
2019-01-18T12:07:40.032Z,39.3
2019-01-18T12:08:30.367Z,39.4
2019-01-18T12:09:20.421Z,39.6
2019-01-18T12:10:10.478Z,39.8
2019-01-18T12:11:00.539Z,40
2019-01-18T12:11:50.578Z,40.3
2019-01-18T12:12:40.376Z,40.4
2019-01-18T12:13:30.433Z,40.7
2019-01-18T12:14:20.761Z,40.9
2019-01-18T12:15:10.811Z,41.1
2019-01-18T12:16:00.606Z,41.3
2019-01-18T12:16:50.662Z,41.6
2019-01-18T12:17:40.719Z,41.9
2019-01-18T12:18:30.771Z,42.3
2019-01-18T12:19:21.108Z,42.6
2019-01-18T12:20:10.888Z,42.9
2019-01-18T12:21:00.662Z,43.2
2019-01-18T12:21:50.998Z,43.4
2019-01-18T12:22:41.330Z,43.6
2019-01-18T12:23:31.385Z,43.8
2019-01-18T12:24:21.450Z,43.9
2019-01-18T12:25:11.513Z,43.9
2019-01-18T12:26:01.582Z,43.9
2019-01-18T12:26:51.612Z,43.9
2019-01-18T12:27:41.420Z,43.9
2019-01-18T12:28:31.462Z,43.9
2019-01-18T12:29:23.008Z,43.9
2019-01-18T12:30:11.846Z,43.9
2019-01-18T12:31:01.906Z,43.9
2019-01-18T12:31:51.681Z,43.8
2019-01-18T12:32:41.736Z,43.7
2019-01-18T12:33:31.791Z,43.6
2019-01-18T12:34:21.858Z,43.4
2019-01-18T12:35:11.358Z,43.3
2019-01-18T12:36:01.984Z,43.3
2019-01-18T12:37:00.191Z,43.2
2019-01-18T12:37:42.363Z,43.1
2019-01-18T12:38:31.868Z,43.1
2019-01-18T12:39:22.478Z,43
2019-01-18T12:40:12.248Z,42.9
2019-01-18T12:41:02.046Z,42.8
2019-01-18T12:41:52.662Z,42.6
2019-01-18T12:42:42.165Z,42.3
2019-01-18T12:43:32.483Z,42.1
2019-01-18T12:44:22.820Z,41.8
2019-01-18T12:45:12.598Z,41.5
2019-01-18T12:46:02.657Z,41.2
2019-01-18T12:46:52.727Z,40.9
2019-01-18T12:47:43.050Z,40.6
2019-01-18T12:48:32.555Z,40.3
2019-01-18T12:49:23.170Z,39.9
2019-01-18T12:50:13.222Z,39.6
2019-01-18T12:51:04.499Z,39.3
2019-01-18T12:51:53.070Z,38.9
2019-01-18T12:52:43.105Z,38.6
2019-01-18T12:53:33.174Z,38.3
2019-01-18T12:54:23.502Z,38
2019-01-18T12:55:13.557Z,37.7
2019-01-18T12:56:03.617Z,37.4
2019-01-18T12:56:53.389Z,37.2
2019-01-18T12:57:43.471Z,36.9
2019-01-18T12:58:33.792Z,36.7
2019-01-18T12:59:23.861Z,36.4
2019-01-18T13:00:13.952Z,36.3
2019-01-18T13:01:03.954Z,36
2019-01-18T13:01:54.029Z,35.8
2019-01-18T13:02:43.794Z,35.6
2019-01-18T13:03:34.134Z,35.4
2019-01-18T13:04:23.919Z,35.2
2019-01-18T13:05:14.029Z,35
2019-01-18T13:06:04.036Z,34.8
2019-01-18T13:06:54.139Z,34.6
2019-01-18T13:07:44.165Z,34.4
2019-01-18T13:08:34.224Z,34.2
2019-01-18T13:09:24.543Z,34
2019-01-18T13:10:14.114Z,33.8
2019-01-18T13:11:04.384Z,33.6
2019-01-18T13:11:54.721Z,33.4
2019-01-18T13:12:44.798Z,33.3
2019-01-18T13:13:34.269Z,33.1
2019-01-18T13:14:24.887Z,32.9
2019-01-18T13:15:14.666Z,32.6
2019-01-18T13:16:05.028Z,32.4
2019-01-18T13:16:55.063Z,32.2
2019-01-18T13:17:45.105Z,32
2019-01-18T13:18:35.178Z,31.8
2019-01-18T13:19:24.963Z,31.7
2019-01-18T13:20:15.013Z,31.6
2019-01-18T13:21:05.348Z,31.4
2019-01-18T13:21:55.395Z,31.3
2019-01-18T13:22:45.190Z,31.1
2019-01-18T13:23:35.522Z,30.9
2019-01-18T13:24:25.579Z,30.8
2019-01-18T13:25:15.098Z,30.6
2019-01-18T13:26:05.750Z,30.3
2019-01-18T13:26:55.480Z,30.1
2019-01-18T13:27:45.800Z,29.8
2019-01-18T13:28:35.851Z,29.6
2019-01-18T13:29:25.669Z,29.3
2019-01-18T13:30:15.984Z,29
2019-01-18T13:31:05.755Z,28.8
2019-01-18T13:31:56.102Z,28.5
2019-01-18T13:32:46.168Z,28.3
2019-01-18T13:33:36.207Z,28.1
2019-01-18T13:34:26.025Z,27.9
2019-01-18T13:36:06.381Z,27.6
2019-01-18T13:36:56.463Z,27.5
2019-01-18T13:37:46.502Z,27.4
2019-01-18T13:38:36.282Z,27.3
2019-01-18T13:39:26.615Z,27.1
2019-01-18T13:40:16.411Z,27
2019-01-18T13:41:06.449Z,26.9
2019-01-18T13:41:56.248Z,26.8
2019-01-18T13:42:46.577Z,26.6
2019-01-18T13:43:36.905Z,26.4
2019-01-18T13:44:26.956Z,26.3
2019-01-18T13:45:16.469Z,26.1
2019-01-18T13:46:06.522Z,25.9
2019-01-18T13:46:57.126Z,25.8
2019-01-18T13:47:47.189Z,25.6
2019-01-18T13:48:36.971Z,25.4
2019-01-18T13:49:27.308Z,25.2
2019-01-18T13:50:17.364Z,24.9
2019-01-18T13:51:07.131Z,24.8
2019-01-18T13:51:57.466Z,24.6
2019-01-18T13:52:48.624Z,24.4
2019-01-18T13:53:37.582Z,24.2
2019-01-18T13:54:27.371Z,24
2019-01-18T13:55:17.711Z,23.8
2019-01-18T13:56:07.486Z,23.6
2019-01-18T13:56:57.823Z,23.4
2019-01-18T13:57:47.893Z,23.2
2019-01-18T13:58:37.673Z,23